createdAt,value
2018-02-11T00:02:34.395Z,0.53
2018-02-11T00:17:35.838Z,0.51
2018-02-11T00:32:36.771Z,0.54
2018-02-11T00:47:34.606Z,0.45
2018-02-11T01:02:34.522Z,0.36
2018-02-11T01:17:36.998Z,0.34
2018-02-11T01:32:37.160Z,0.34
2018-02-11T01:47:34.798Z,0.31
2018-02-11T02:02:34.717Z,0.29
2018-02-11T02:17:34.289Z,0.27
2018-02-11T02:32:36.214Z,0.26
2018-02-11T02:47:36.173Z,0.28
2018-02-11T03:02:35.092Z,0.39
2018-02-11T03:17:34.519Z,0.46
2018-02-11T03:32:35.399Z,0.49
2018-02-11T03:47:34.544Z,0.53
2018-02-11T04:02:34.287Z,0.66
2018-02-11T04:17:36.866Z,0.63
2018-02-11T04:32:35.814Z,0.71
2018-02-11T04:47:34.580Z,0.77
2018-02-11T05:02:36.579Z,0.85
2018-02-11T05:17:36.964Z,0.78
2018-02-11T05:32:34.452Z,0.90
2018-02-11T05:47:34.754Z,0.83
2018-02-11T06:02:37.896Z,0.89
2018-02-11T06:17:34.172Z,1.08
2018-02-11T06:32:34.253Z,1.59
2018-02-11T06:47:35.132Z,2.04
2018-02-11T07:02:34.916Z,2.21
2018-02-11T07:17:36.717Z,2.35
2018-02-11T07:32:36.191Z,2.46
2018-02-11T07:47:36.637Z,2.64
2018-02-11T08:02:34.431Z,2.77
2018-02-11T08:17:36.725Z,2.75
2018-02-11T08:32:36.653Z,2.94
2018-02-11T08:47:34.623Z,2.68
2018-02-11T09:02:34.542Z,2.52
2018-02-11T09:17:36.966Z,2.73
2018-02-11T09:32:34.334Z,2.74
2018-02-11T09:47:34.329Z,3.04
2018-02-11T10:02:34.238Z,2.45
2018-02-11T10:17:36.240Z,2.34
2018-02-11T10:32:36.234Z,2.37
2018-02-11T10:47:35.560Z,2.29
2018-02-11T11:02:34.985Z,2.22
2018-02-11T11:17:34.435Z,2.11
2018-02-11T11:32:34.368Z,2.34
2018-02-11T11:47:34.322Z,1.67
2018-02-11T12:02:34.269Z,1.73
2018-02-11T12:17:36.662Z,1.42
2018-02-11T12:32:34.606Z,1.64
2018-02-11T12:47:34.572Z,2.19
2018-02-11T13:02:36.715Z,2.03
2018-02-11T13:17:37.153Z,1.83
2018-02-11T13:32:36.902Z,1.39
2018-02-11T13:47:35.724Z,1.69
2018-02-11T14:02:34.653Z,2.12
2018-02-11T14:17:34.173Z,2.26
2018-02-11T14:32:37.106Z,2.32
2018-02-11T14:47:35.033Z,2.24
2018-02-11T15:02:34.929Z,2.26
2018-02-11T15:17:41.406Z,2.69
2018-02-11T15:32:36.345Z,2.95
2018-02-11T15:47:34.281Z,3.12
2018-02-11T16:02:35.205Z,3.10
2018-02-11T16:17:36.134Z,3.13
2018-02-11T16:32:42.222Z,3.11
2018-02-11T16:47:34.577Z,3.10
2018-02-11T17:02:40.416Z,3.18
2018-02-11T17:17:39.688Z,3.31
2018-02-11T17:32:37.940Z,3.31
2018-02-11T17:47:34.841Z,3.33
2018-02-11T18:02:36.728Z,3.36
2018-02-11T18:17:35.205Z,3.38
2018-02-11T18:32:40.051Z,3.28
2018-02-11T18:47:37.607Z,3.33
2018-02-11T19:17:38.908Z,3.55
2018-02-11T19:47:41.700Z,3.61
2018-02-11T20:02:38.832Z,3.61
2018-02-11T20:17:37.940Z,3.59
2018-02-11T20:47:36.583Z,3.71
2018-02-11T21:02:38.509Z,3.62
2018-02-11T21:17:34.976Z,3.61
2018-02-11T21:32:36.279Z,3.60
2018-02-11T21:47:34.354Z,3.55
2018-02-11T22:02:35.297Z,3.49
2018-02-11T22:32:35.022Z,3.44
2018-02-11T22:47:35.018Z,3.38
2018-02-11T23:02:34.950Z,3.36
2018-02-11T23:17:37.415Z,3.38
2018-02-11T23:32:37.260Z,3.33
2018-02-11T23:47:40.204Z,3.34
